Hovedside
METAR-TAF:

METAR-TAF

Lufthavner :

Kirkenes lufthavn. Høybuktmoen

Kirkenes, Norge

breddegrad: 69-44N, lengdegrad: 029-54E, høyde over havet: 9 m

Gjeldene værobservasjon

Denne rapporten ble laget for 29 minutter siden, klokken 10:20 UTC
Vind 4 kt fra Vest, skiftende mellom Sørvest og Vest-nordvest
Temperatur 14°C
Luftfuktighet 72%
Trykk 1015 hPa
Sikt 10 km eller mer
Brutte skyer i en høyde av 1700 ft

METAR: ENKR 061020Z 26004KT 220V290 9999 BKN017 14/09 Q1015 RMK WIND 731FT 26005KT

Tid: 12:49 (10:49 UTC)

Varsel

Denne rapporten ble laget for 2 timer og 49 minutter siden, klokken 08:00 UTC
Varsel gyldig fra 06. klokken 09 UTC til 06. klokken 18 UTC
Vind 5 kt fra Nord-nordøst
Sikt 10 km eller mer
Få skyer i en høyde av 500 ft
Brutte skyer i en høyde av 1800 ft
Midlertidig
fra 06. klokken 09 UTC til 06. klokken 11 UTC
Brutte skyer i en høyde av 800 ft

TAF: ENKR 060800Z 0609/0618 02005KT 9999 FEW005 BKN018 TEMPO 0609/0611 BKN008

Værobservasjoner og værvarsel for over 4000 flyplasser (METAR- og TAF-rapporter).

Tilgjengelige stasjoner er representert av de røde og gule prikkene på kartet.

Hold musepekeren over prikken for å se navnet på stasjonen.

Klikk så for å se værobservasjoner og -varsler.

For å forandre kartet kan du klikke på den grønne knappen med svart kryss for å zoome inn, på den grønne knappen med strek for å zoome ut, eller på de grønne pilene for å se tilstøtende kart.


METAR-TAF: